Time;durP1;ratioP1;P1;durP2;ratioP2;P2;SDS_P1;SDS_P2;PMS_P1;PMS_P2;Temp;Humidity;BMP_temperature;BMP_pressure;BME280_temperature;BME280_humidity;BME280_pressure;Samples;Min_cycle;Max_cycle;Signal;HPM_P1;HPM_P2
2022/09/22 00:01:40;;;;;;;0.10;0.10;;;;;;;12.04;60.96;102618.44;5081108;28;20035;-83
2022/09/22 00:04:09;;;;;;;0.10;0.10;;;;;;;12.03;61.40;102614.88;5080788;28;20037;-83
2022/09/22 00:06:42;;;;;;;0.10;0.10;;;;;;;12.04;61.76;102621.09;5081142;28;20032;-83
2022/09/22 00:09:10;;;;;;;;;;;;;;;12.13;61.36;102616.66;5091627;28;20020;-82
2022/09/22 00:11:41;;;;;;;0.10;0.10;;;;;;;11.98;61.70;102612.22;5084860;28;20007;-82
2022/09/22 00:14:11;;;;;;;0.00;0.00;;;;;;;11.96;61.63;102613.09;5080977;28;20480;-83
2022/09/22 00:19:23;;;;;;;0.00;0.00;;;;;;;11.96;61.40;102608.69;5059663;28;20733;-82
2022/09/22 00:21:50;;;;;;;0.10;0.10;;;;;;;11.91;61.89;102607.75;5052994;28;20516;-82
2022/09/22 00:24:17;;;;;;;0.10;0.10;;;;;;;11.91;61.40;102598.88;5049172;28;20040;-83
2022/09/22 00:26:44;;;;;;;0.10;0.10;;;;;;;11.89;61.18;102598.00;5055821;28;20032;-83
2022/09/22 00:29:11;;;;;;;0.10;0.10;;;;;;;11.85;61.78;102599.78;5054343;28;20063;-83
2022/09/22 00:31:39;;;;;;;0.10;0.10;;;;;;;11.87;61.28;102592.66;5053560;28;20484;-82
2022/09/22 00:34:06;;;;;;;0.08;0.08;;;;;;;11.86;61.33;102590.03;5052803;28;20078;-83
2022/09/22 00:36:34;;;;;;;0.10;0.10;;;;;;;11.84;61.62;102598.00;5053331;28;20044;-82
2022/09/22 00:39:00;;;;;;;2.13;0.38;;;;;;;11.85;61.30;102598.88;5052183;28;20111;-83
2022/09/22 00:41:30;;;;;;;0.10;0.10;;;;;;;11.84;61.76;102587.38;5054637;28;20049;-83
2022/09/22 00:47:05;;;;;;;0.10;0.10;;;;;;;11.84;61.60;102586.47;5095629;27;20428;-83
2022/09/22 00:49:58;;;;;;;0.10;0.10;;;;;;;11.85;62.33;102586.50;5076938;28;20036;-82
2022/09/22 00:52:31;;;;;;;0.10;0.10;;;;;;;11.80;62.21;102581.16;5061595;28;20115;-82
2022/09/22 00:55:02;;;;;;;0.10;0.10;;;;;;;11.78;61.60;102582.91;5056778;28;20108;-82
2022/09/22 00:57:32;;;;;;;0.10;0.10;;;;;;;11.77;62.17;102585.56;5056370;28;20026;-82
2022/09/22 01:00:01;;;;;;;0.10;0.10;;;;;;;11.74;62.01;102580.22;5055027;28;20037;-82
2022/09/22 01:02:27;;;;;;;0.10;0.10;;;;;;;11.73;61.82;102579.34;5056417;28;20029;-82
2022/09/22 01:04:53;;;;;;;0.10;0.10;;;;;;;11.73;61.75;102575.81;5058076;28;20404;-82
2022/09/22 01:07:23;;;;;;;0.00;0.00;;;;;;;11.72;62.10;102577.56;5053783;28;20036;-83
2022/09/22 01:09:51;;;;;;;0.10;0.10;;;;;;;11.70;62.38;102570.50;5054696;28;20033;-83
2022/09/22 01:12:18;;;;;;;0.08;0.08;;;;;;;11.68;61.88;102572.28;5055246;28;20098;-83
2022/09/22 01:15:24;;;;;;;1.27;1.27;;;;;;;11.76;62.62;102570.50;5055707;28;20025;-83
2022/09/22 01:26:27;;;;;;;0.10;0.10;;;;;;;11.64;62.51;102561.63;5094129;27;20416;-83
2022/09/22 01:29:33;;;;;;;0.10;0.10;;;;;;;11.68;62.80;102559.00;5073081;28;20037;-83
2022/09/22 01:32:15;;;;;;;0.10;0.10;;;;;;;11.62;62.70;102554.53;5073634;28;20078;-83
2022/09/22 01:35:05;;;;;;;0.10;0.10;;;;;;;11.58;62.37;102556.31;5073689;28;20491;-83
2022/09/22 01:40:33;;;;;;;0.10;0.10;;;;;;;11.59;62.09;102554.53;5121936;27;20407;-79
2022/09/22 01:43:25;;;;;;;0.22;0.13;;;;;;;11.56;62.50;102555.41;5110851;28;20036;-79
2022/09/22 01:45:53;;;;;;;0.15;0.15;;;;;;;11.53;62.66;102552.75;5107855;28;20562;-79
2022/09/22 01:48:25;;;;;;;0.10;0.10;;;;;;;11.52;62.60;102550.97;5112352;28;20035;-78
2022/09/22 01:50:57;;;;;;;0.10;0.10;;;;;;;11.55;62.60;102544.78;5114775;28;20500;-79
2022/09/22 01:53:32;;;;;;;0.10;0.10;;;;;;;11.54;63.12;102549.22;5111981;27;20028;-80
2022/09/22 01:56:04;;;;;;;0.10;0.10;;;;;;;11.53;62.49;102539.47;5110169;28;20024;-80
2022/09/22 01:58:39;;;;;;;0.10;0.10;;;;;;;11.55;62.42;102528.84;5108963;28;20039;-80
2022/09/22 02:01:12;;;;;;;0.10;0.10;;;;;;;11.52;62.23;102532.38;5108827;28;20039;-80
2022/09/22 02:03:45;;;;;;;0.10;0.10;;;;;;;11.52;62.27;102531.50;5112191;28;20497;-81
2022/09/22 02:06:20;;;;;;;0.10;0.10;;;;;;;11.52;62.55;102532.38;5110673;28;20032;-80
2022/09/22 02:09:08;;;;;;;0.10;0.10;;;;;;;11.55;62.94;102529.75;5112213;28;20485;-80
2022/09/22 02:11:34;;;;;;;0.10;0.10;;;;;;;11.45;62.51;102525.28;5109161;28;20032;-80
2022/09/22 02:14:03;;;;;;;0.10;0.10;;;;;;;11.44;62.47;102516.44;5110148;28;20574;-80
2022/09/22 02:16:30;;;;;;;0.10;0.10;;;;;;;11.44;62.20;102512.88;5116189;28;20031;-80
2022/09/22 02:21:43;;;;;;;0.10;0.10;;;;;;;11.44;62.91;102518.19;5098392;27;20751;-80
2022/09/22 02:24:32;;;;;;;0.10;0.10;;;;;;;11.53;62.68;102510.28;5086891;28;20107;-80
2022/09/22 02:27:04;;;;;;;0.10;0.10;;;;;;;11.43;62.44;102508.50;5059118;28;20025;-80
2022/09/22 02:29:34;;;;;;;0.10;0.10;;;;;;;11.41;62.98;102513.75;5069832;28;20038;-80
2022/09/22 02:32:04;;;;;;;0.10;0.10;;;;;;;11.38;62.95;102507.59;5071430;28;20033;-80
2022/09/22 02:34:31;;;;;;;0.10;0.10;;;;;;;11.36;62.78;102506.69;5070258;28;20555;-79
2022/09/22 02:45:21;;;;;;;0.35;0.32;;;;;;;11.39;62.92;102501.38;5110482;27;20404;-78
2022/09/22 02:47:56;;;;;;;0.10;0.10;;;;;;;11.35;62.40;102507.56;5089395;28;20060;-79
2022/09/22 02:50:24;;;;;;;0.10;0.10;;;;;;;11.30;63.27;102500.47;5097761;28;20039;-80
2022/09/22 02:52:56;;;;;;;0.10;0.10;;;;;;;11.29;63.08;102501.34;5092514;28;20513;-79
2022/09/22 02:55:22;;;;;;;0.10;0.10;;;;;;;11.25;62.65;102494.28;5091690;28;20036;-80
2022/09/22 02:57:48;;;;;;;0.10;0.10;;;;;;;11.24;62.92;102499.56;5091179;28;20028;-80
2022/09/22 03:00:17;;;;;;;0.10;0.10;;;;;;;11.21;62.86;102497.78;5090870;28;20485;-78
2022/09/22 03:02:43;;;;;;;1.15;1.00;;;;;;;11.17;63.27;102503.97;5089522;28;20149;-79
2022/09/22 03:05:09;;;;;;;0.10;0.10;;;;;;;11.19;62.74;102493.34;5090366;28;20397;-80
2022/09/22 03:07:35;;;;;;;0.10;0.10;;;;;;;11.16;62.48;102502.19;5091072;28;20058;-80
2022/09/22 03:10:02;;;;;;;0.10;0.10;;;;;;;11.15;63.08;102489.78;5103671;28;20024;-80
2022/09/22 03:12:28;;;;;;;0.10;0.10;;;;;;;11.13;62.87;102496.88;5090920;28;20043;-81
2022/09/22 03:14:54;;;;;;;0.10;0.10;;;;;;;11.12;63.12;102489.78;5090097;28;20025;-79
2022/09/22 03:17:20;;;;;;;0.10;0.10;;;;;;;11.11;62.71;102488.88;5087181;28;20485;-79
2022/09/22 03:19:47;;;;;;;0.10;0.10;;;;;;;11.10;63.32;102497.75;5095820;28;20036;-79
2022/09/22 03:22:13;;;;;;;0.10;0.10;;;;;;;11.11;62.89;102488.00;5080817;28;20032;-78
2022/09/22 03:24:39;;;;;;;0.10;0.10;;;;;;;11.12;62.77;102482.72;5089560;28;20013;-78
2022/09/22 03:27:05;;;;;;;0.32;0.32;;;;;;;11.11;63.44;102482.72;5092943;28;20051;-81
2022/09/22 03:29:31;;;;;;;0.10;0.10;;;;;;;11.10;63.61;102476.53;5087984;28;20028;-79
2022/09/22 03:31:57;;;;;;;0.10;0.10;;;;;;;11.09;63.48;102479.16;5093166;28;20383;-79
2022/09/22 03:34:23;;;;;;;0.10;0.10;;;;;;;11.08;63.62;102477.38;5094850;28;20026;-80
2022/09/22 03:36:49;;;;;;;0.10;0.10;;;;;;;11.05;63.43;102472.06;5093162;28;20028;-79
2022/09/22 03:39:36;;;;;;;0.10;0.10;;;;;;;11.07;63.25;102471.19;5089792;28;20032;-79
2022/09/22 03:42:02;;;;;;;0.10;0.10;;;;;;;11.06;63.27;102480.03;5090326;28;21794;-79
2022/09/22 03:44:28;;;;;;;0.10;0.10;;;;;;;11.04;63.30;102475.59;5096088;28;20032;-76
2022/09/22 03:46:54;;;;;;;0.10;0.10;;;;;;;11.03;63.41;102476.47;5090404;28;20036;-79
2022/09/22 03:49:20;;;;;;;0.10;0.10;;;;;;;11.02;63.83;102477.38;5092962;28;20060;-79
2022/09/22 03:51:46;;;;;;;0.10;0.10;;;;;;;10.99;63.62;102480.88;5090174;28;20107;-79
2022/09/22 03:54:12;;;;;;;0.10;0.10;;;;;;;10.96;63.62;102473.78;5089794;28;20048;-79
2022/09/22 03:56:39;;;;;;;0.10;0.10;;;;;;;10.95;63.77;102476.44;5070280;28;20036;-78
2022/09/22 03:59:05;;;;;;;0.10;0.10;;;;;;;10.93;63.23;102467.59;5074590;28;20033;-79
2022/09/22 04:01:31;;;;;;;0.10;0.10;;;;;;;10.97;63.14;102475.56;5077279;28;20039;-79
2022/09/22 04:03:57;;;;;;;0.00;0.00;;;;;;;10.97;63.56;102474.69;5069714;28;20049;-77
2022/09/22 04:06:23;;;;;;;0.10;0.10;;;;;;;10.95;63.34;102477.34;5076022;28;20028;-78
2022/09/22 04:08:50;;;;;;;0.10;0.10;;;;;;;10.95;63.72;102468.50;5080251;28;20398;-77
2022/09/22 04:11:16;;;;;;;0.10;0.10;;;;;;;10.92;63.37;102466.72;5074948;28;20550;-79
2022/09/22 04:13:42;;;;;;;0.10;0.10;;;;;;;10.90;63.68;102463.16;5077331;28;20044;-79
2022/09/22 04:16:08;;;;;;;0.10;0.10;;;;;;;10.85;64.09;102456.94;5073712;28;20035;-79
2022/09/22 04:18:39;;;;;;;0.10;0.10;;;;;;;10.84;63.37;102458.72;5077678;28;20032;-79
2022/09/22 04:21:05;;;;;;;0.10;0.10;;;;;;;10.82;63.66;102455.16;5076466;28;20029;-79
2022/09/22 04:23:33;;;;;;;0.10;0.10;;;;;;;10.80;63.25;102456.94;5073581;28;20028;-79
2022/09/22 04:26:00;;;;;;;0.10;0.10;;;;;;;10.82;63.22;102456.94;5076866;28;20067;-79
2022/09/22 04:28:26;;;;;;;0.10;0.10;;;;;;;10.85;63.77;102462.25;5073772;28;20492;-79
2022/09/22 04:30:53;;;;;;;0.10;0.10;;;;;;;10.86;63.38;102460.50;5075922;28;20390;-80
2022/09/22 04:33:19;;;;;;;0.10;0.10;;;;;;;10.84;63.63;102460.47;5081453;28;20025;-80
2022/09/22 04:35:48;;;;;;;0.10;0.10;;;;;;;10.83;63.66;102461.38;5077317;28;20040;-79
2022/09/22 04:38:15;;;;;;;0.10;0.10;;;;;;;10.81;63.61;102460.47;5083577;28;20040;-77
2022/09/22 04:40:41;;;;;;;0.10;0.10;;;;;;;10.76;63.74;102463.09;5079723;28;20028;-79
2022/09/22 04:43:07;;;;;;;0.10;0.10;;;;;;;10.74;63.51;102461.31;5074467;28;20037;-79
2022/09/22 04:45:33;;;;;;;0.10;0.10;;;;;;;10.72;63.74;102457.78;5073862;28;20064;-83
2022/09/22 04:48:00;;;;;;;0.10;0.10;;;;;;;10.77;63.21;102456.03;5074691;28;20031;-82
2022/09/22 04:50:27;;;;;;;0.10;0.10;;;;;;;10.73;63.91;102459.53;5071249;28;20036;-83
2022/09/22 04:52:55;;;;;;;0.10;0.10;;;;;;;10.70;63.77;102460.41;5073111;28;20059;-82
2022/09/22 04:55:23;;;;;;;0.10;0.10;;;;;;;10.67;63.62;102458.63;5071558;28;20037;-82
2022/09/22 04:57:52;;;;;;;0.10;0.10;;;;;;;10.75;63.28;102457.78;5069812;28;20036;-82
2022/09/22 05:00:20;;;;;;;0.05;0.05;;;;;;;10.74;63.40;102458.66;5068666;28;20085;-81
2022/09/22 05:02:47;;;;;;;0.10;0.10;;;;;;;10.73;62.88;102459.53;5075190;28;20028;-82
2022/09/22 05:05:13;;;;;;;0.10;0.10;;;;;;;10.71;63.90;102456.88;5072062;28;20062;-81
2022/09/22 05:07:44;;;;;;;0.13;0.13;;;;;;;10.70;63.47;102459.53;5074597;28;20032;-81
2022/09/22 05:10:11;;;;;;;0.10;0.10;;;;;;;10.67;63.25;102455.09;5072948;28;20035;-82
2022/09/22 05:12:44;;;;;;;0.08;0.08;;;;;;;10.71;63.23;102461.31;5070730;28;20036;-82
2022/09/22 05:15:11;;;;;;;;;;;;;;;10.83;63.02;102459.59;5074785;28;20028;-82
2022/09/22 05:17:43;;;;;;;0.10;0.10;;;;;;;10.70;63.07;102459.53;5066884;28;19909;-79
2022/09/22 05:20:10;;;;;;;0.20;0.20;;;;;;;10.67;63.84;102455.09;5074958;28;20028;-82
2022/09/22 05:22:38;;;;;;;0.10;0.10;;;;;;;10.65;63.69;102463.06;5064343;28;20120;-81
2022/09/22 05:25:06;;;;;;;0.10;0.10;;;;;;;10.64;63.52;102452.41;5071177;28;20029;-82
2022/09/22 05:27:32;;;;;;;0.10;0.10;;;;;;;10.64;63.42;102460.38;5073615;28;20029;-80
2022/09/22 05:29:58;;;;;;;0.00;0.00;;;;;;;10.63;63.18;102459.50;5059657;28;20040;-81
2022/09/22 05:32:24;;;;;;;0.10;0.10;;;;;;;10.63;63.45;102459.50;5070134;28;20052;-81
2022/09/22 05:34:50;;;;;;;0.10;0.10;;;;;;;10.64;63.43;102461.28;5069286;28;20029;-82
2022/09/22 05:37:16;;;;;;;0.10;0.10;;;;;;;10.64;63.49;102458.63;5074086;28;20052;-82
2022/09/22 05:39:42;;;;;;;0.10;0.10;;;;;;;10.66;63.25;102466.59;5078104;28;20035;-85
2022/09/22 05:42:08;;;;;;;0.10;0.10;;;;;;;10.66;63.59;102464.81;5065374;28;20033;-82
2022/09/22 05:44:35;;;;;;;0.20;0.20;;;;;;;10.67;63.55;102469.22;5075714;28;20021;-83
2022/09/22 05:47:01;;;;;;;0.10;0.10;;;;;;;10.68;63.27;102468.38;5075893;28;20082;-83
2022/09/22 05:49:30;;;;;;;0.10;0.10;;;;;;;10.73;63.43;102464.84;5075570;28;20551;-81
2022/09/22 05:51:58;;;;;;;0.10;0.10;;;;;;;10.72;63.58;102468.41;5072966;28;20101;-81
2022/09/22 05:54:24;;;;;;;1.17;0.77;;;;;;;10.72;63.37;102463.09;5068070;28;20035;-81
2022/09/22 05:56:51;;;;;;;0.10;0.10;;;;;;;10.73;63.41;102463.09;5071603;28;20110;-81
2022/09/22 05:59:17;;;;;;;0.10;0.10;;;;;;;10.75;63.33;102465.75;5076415;28;20093;-81
2022/09/22 06:01:43;;;;;;;0.10;0.10;;;;;;;10.78;63.34;102468.41;5080581;28;20039;-81
2022/09/22 06:04:09;;;;;;;0.10;0.10;;;;;;;10.78;63.77;102464.00;5081407;28;20016;-82
2022/09/22 06:06:35;;;;;;;0.10;0.10;;;;;;;10.80;63.59;102467.56;5077768;28;20054;-82
2022/09/22 06:09:01;;;;;;;0.10;0.10;;;;;;;10.83;63.42;102467.56;5086581;28;20185;-82
2022/09/22 06:11:27;;;;;;;0.10;0.10;;;;;;;10.87;63.28;102464.94;5081480;28;20074;-83
2022/09/22 06:13:53;;;;;;;0.10;0.10;;;;;;;10.89;63.28;102461.41;5085051;28;20026;-82
2022/09/22 06:16:19;;;;;;;0.10;0.10;;;;;;;10.92;63.67;102460.53;5079485;28;20032;-82
2022/09/22 06:18:46;;;;;;;0.10;0.10;;;;;;;10.95;63.35;102456.13;5060997;28;20032;-81
2022/09/22 06:21:15;;;;;;;0.10;0.10;;;;;;;10.99;63.73;102462.31;5065913;28;20078;-82
2022/09/22 06:23:42;;;;;;;0.10;0.10;;;;;;;11.02;63.50;102453.50;5077499;28;20025;-82
2022/09/22 06:26:08;;;;;;;0.10;0.10;;;;;;;11.06;63.32;102455.28;5078589;28;20628;-82
2022/09/22 06:28:34;;;;;;;0.10;0.10;;;;;;;11.09;63.39;102456.19;5081523;28;20035;-81
2022/09/22 06:31:01;;;;;;;0.10;0.10;;;;;;;11.13;63.63;102459.75;5088389;28;20039;-81
2022/09/22 06:33:28;;;;;;;0.10;0.10;;;;;;;11.16;63.24;102454.44;5083129;28;20041;-81
2022/09/22 06:35:56;;;;;;;0.10;0.10;;;;;;;11.21;63.26;102451.78;5090025;28;20021;-82
2022/09/22 06:38:22;;;;;;;0.10;0.10;;;;;;;11.25;63.26;102454.47;5075825;28;20108;-83
2022/09/22 06:40:49;;;;;;;0.10;0.10;;;;;;;11.29;63.22;102456.25;5075179;28;20041;-82
2022/09/22 06:43:19;;;;;;;0.10;0.10;;;;;;;11.34;63.42;102456.28;5074506;28;20382;-82
2022/09/22 06:45:45;;;;;;;0.10;0.10;;;;;;;11.38;63.29;102452.72;5075327;28;20032;-82
2022/09/22 06:48:12;;;;;;;0.00;0.00;;;;;;;11.42;63.44;102450.97;5074755;28;20111;-82
2022/09/22 06:50:39;;;;;;;0.10;0.10;;;;;;;11.42;63.92;102451.84;5074575;28;20020;-82
2022/09/22 06:53:07;;;;;;;0.10;0.10;;;;;;;11.46;63.84;102450.09;5079396;28;20040;-82
2022/09/22 06:55:34;;;;;;;0.10;0.10;;;;;;;11.48;63.27;102453.63;5076296;28;20032;-82
2022/09/22 06:58:01;;;;;;;0.30;0.30;;;;;;;11.52;63.85;102458.06;5084661;28;20032;-82
2022/09/22 07:00:31;;;;;;;0.10;0.10;;;;;;;11.58;63.94;102454.56;5074775;28;20025;-82
2022/09/22 07:03:07;;;;;;;0.10;0.10;;;;;;;11.70;63.57;102456.31;5086864;28;20180;-83
2022/09/22 07:05:36;;;;;;;0.03;0.03;;;;;;;11.70;63.40;102451.00;5066284;28;20124;-81
2022/09/22 07:08:03;;;;;;;0.10;0.10;;;;;;;11.76;63.94;102453.66;5069852;28;20032;-83
2022/09/22 07:10:36;;;;;;;0.10;0.10;;;;;;;11.83;64.08;102447.50;5078216;28;20571;-81
2022/09/22 07:13:04;;;;;;;0.10;0.10;;;;;;;11.88;63.80;102445.72;5074293;28;20033;-82
2022/09/22 07:15:31;;;;;;;0.10;0.10;;;;;;;11.95;63.92;102447.50;5073996;28;20111;-82
2022/09/22 07:18:00;;;;;;;0.10;0.10;;;;;;;12.09;63.48;102436.00;5076395;28;20052;-82
2022/09/22 07:20:27;;;;;;;0.10;0.10;;;;;;;12.13;63.21;102435.13;5079524;28;20032;-83
2022/09/22 07:22:59;;;;;;;0.10;0.10;;;;;;;12.17;63.95;102442.19;5082673;28;20024;-81
2022/09/22 07:25:27;;;;;;;0.10;0.10;;;;;;;12.21;63.93;102433.34;5079694;28;20035;-80
2022/09/22 07:27:53;;;;;;;0.10;0.10;;;;;;;12.33;63.63;102436.88;5088187;28;20074;-80
2022/09/22 07:30:21;;;;;;;0.10;0.10;;;;;;;12.41;63.67;102435.06;5074545;28;20024;-79
2022/09/22 07:32:47;;;;;;;0.10;0.10;;;;;;;12.49;63.62;102433.28;5072657;28;20032;-80
2022/09/22 07:35:13;;;;;;;0.10;0.10;;;;;;;12.54;63.45;102435.94;5078074;28;20087;-80
2022/09/22 07:37:40;;;;;;;0.10;0.10;;;;;;;12.60;63.60;102442.13;5089400;28;20028;-80
2022/09/22 07:40:07;;;;;;;0.10;0.10;;;;;;;12.68;63.49;102438.56;5074252;28;20043;-80
2022/09/22 07:42:33;;;;;;;0.40;0.40;;;;;;;12.76;63.59;102436.72;5072490;28;20655;-80
2022/09/22 07:45:14;;;;;;;0.08;0.08;;;;;;;12.83;64.02;102437.63;5072225;28;20052;-80
2022/09/22 07:50:29;;;;;;;0.10;0.10;;;;;;;12.98;64.29;102431.34;5073925;28;20043;-81
2022/09/22 07:52:56;;;;;;;0.15;0.15;;;;;;;13.06;64.20;102430.41;5080034;28;20420;-80
2022/09/22 07:55:23;;;;;;;0.10;0.10;;;;;;;13.16;63.89;102433.91;5069574;28;20406;-79
2022/09/22 07:57:56;;;;;;;0.10;0.10;;;;;;;13.26;63.62;102432.97;5073366;28;20021;-80
2022/09/22 08:00:24;;;;;;;0.10;0.10;;;;;;;13.35;63.39;102420.50;5067107;28;20029;-79
2022/09/22 08:02:53;;;;;;;0.10;0.10;;;;;;;13.44;63.33;102428.44;5064127;28;20041;-80
2022/09/22 08:05:20;;;;;;;0.10;0.10;;;;;;;13.54;63.82;102421.28;5068939;28;20039;-80
2022/09/22 08:07:46;;;;;;;0.10;0.10;;;;;;;13.68;63.54;102426.50;5071682;28;20040;-80
2022/09/22 08:10:14;;;;;;;0.10;0.10;;;;;;;13.76;63.44;102422.00;5068703;28;20029;-80
2022/09/22 08:12:40;;;;;;;0.20;0.20;;;;;;;13.87;64.24;102420.13;5075698;28;20021;-80
2022/09/22 08:15:06;;;;;;;0.22;0.20;;;;;;;13.99;63.92;102418.25;5076417;28;20043;-81
2022/09/22 08:17:32;;;;;;;0.17;0.17;;;;;;;14.11;63.78;102419.94;5074562;28;20028;-80
2022/09/22 08:20:02;;;;;;;0.00;0.00;;;;;;;14.20;64.19;102420.72;5075142;28;20021;-80
2022/09/22 08:22:28;;;;;;;0.30;0.30;;;;;;;14.32;62.85;102410.84;5074375;28;20028;-80
2022/09/22 08:24:54;;;;;;;4.57;0.65;;;;;;;14.44;63.75;102410.69;5070113;28;20053;-82
2022/09/22 08:27:21;;;;;;;0.10;0.10;;;;;;;14.54;63.84;102409.72;5071758;28;20029;-83
2022/09/22 08:29:47;;;;;;;0.10;0.10;;;;;;;14.65;62.47;102408.72;5061968;28;20024;-82
2022/09/22 08:32:17;;;;;;;0.10;0.10;;;;;;;14.77;62.21;102408.56;5083032;28;20037;-83
2022/09/22 08:34:44;;;;;;;0.20;0.20;;;;;;;14.88;62.03;102411.13;5076605;28;20108;-83
2022/09/22 08:37:12;;;;;;;0.10;0.10;;;;;;;15.00;61.63;102400.28;5075200;28;20033;-83
2022/09/22 08:39:39;;;;;;;0.40;0.40;;;;;;;15.12;61.26;102404.53;5078666;28;20024;-83
2022/09/22 08:42:12;;;;;;;0.10;0.10;;;;;;;15.28;61.14;102407.00;5075169;28;20071;-83
2022/09/22 08:53:08;;;;;;;0.15;0.15;;;;;;;15.78;59.63;102397.31;5107665;27;20397;-83
2022/09/22 08:55:36;;;;;;;;;;;;;;;16.01;59.25;102396.94;5109119;28;20551;-83
2022/09/22 08:58:42;;;;;;;0.95;0.68;;;;;;;16.12;59.17;102402.06;5102700;28;19908;-83
2022/09/22 09:01:37;;;;;;;0.10;0.10;;;;;;;16.21;58.80;102397.47;5100920;28;20048;-83
2022/09/22 09:04:29;;;;;;;0.30;0.30;;;;;;;16.36;58.93;102393.63;5093857;28;20028;-83
2022/09/22 09:07:02;;;;;;;;;;;;;;;16.57;57.73;102395.84;5087773;28;20120;-83
2022/09/22 09:10:00;;;;;;;0.60;0.60;;;;;;;16.67;58.01;102396.56;5098212;28;20064;-83
2022/09/22 09:12:54;;;;;;;0.52;0.45;;;;;;;16.85;57.88;102395.31;5087755;28;20022;-83
2022/09/22 09:15:40;;;;;;;0.32;0.32;;;;;;;16.92;56.89;102390.72;5091640;28;20437;-83
2022/09/22 09:18:15;;;;;;;0.63;0.63;;;;;;;16.99;56.05;102400.38;5092762;28;20016;-83
2022/09/22 09:20:45;;;;;;;0.73;0.73;;;;;;;17.10;57.05;102403.69;5090900;28;20047;-82
2022/09/22 09:23:19;;;;;;;0.30;0.30;;;;;;;17.23;57.10;102395.38;5092770;28;20054;-83
2022/09/22 09:25:51;;;;;;;0.20;0.20;;;;;;;17.29;55.92;102390.75;5090745;28;20479;-83
2022/09/22 09:28:41;;;;;;;0.50;0.50;;;;;;;17.43;56.59;102393.13;5096290;28;20045;-83
2022/09/22 09:31:38;;;;;;;0.10;0.10;;;;;;;17.58;54.76;102399.91;5098836;28;20092;-84
2022/09/22 09:34:10;;;;;;;0.57;0.57;;;;;;;17.61;54.70;102391.78;5091053;28;20059;-84
2022/09/22 09:36:41;;;;;;;0.63;0.57;;;;;;;17.72;54.05;102386.16;5095933;28;20408;-84
2022/09/22 09:39:14;;;;;;;0.60;0.40;;;;;;;17.83;53.46;102388.56;5102731;28;20439;-84
2022/09/22 09:41:42;;;;;;;0.20;0.20;;;;;;;17.99;55.15;102393.56;5106976;28;20509;-83
2022/09/22 09:44:16;;;;;;;0.10;0.10;;;;;;;18.11;53.39;102391.41;5096859;28;20028;-84
2022/09/22 09:49:20;;;;;;;0.10;0.10;;;;;;;18.23;53.44;102395.59;4992721;27;4254352;-84
2022/09/22 09:51:51;;;;;;;0.20;0.20;;;;;;;18.36;53.19;102401.47;5122288;28;20034;-85
2022/09/22 09:54:18;;;;;;;0.50;0.50;;;;;;;18.49;53.84;102401.13;5118283;28;20039;-84
2022/09/22 10:07:43;;;;;;;0.10;0.10;;;;;;;19.08;49.37;102373.47;5084917;27;20592;-84
2022/09/22 10:10:34;;;;;;;0.20;0.20;;;;;;;19.30;51.77;102373.66;5065166;28;20402;-84
2022/09/22 10:16:06;;;;;;;0.10;0.10;;;;;;;19.51;51.44;102371.19;5119081;27;20383;-81
2022/09/22 10:18:38;;;;;;;0.00;0.00;;;;;;;19.58;51.28;102366.47;5113320;28;20086;-80
2022/09/22 10:23:43;;;;;;;0.30;0.30;;;;;;;19.70;48.69;102368.75;5075669;28;20384;-82
2022/09/22 10:26:17;;;;;;;0.32;0.32;;;;;;;19.82;48.09;102364.75;5075599;28;20043;-83
2022/09/22 10:28:49;;;;;;;0.08;0.08;;;;;;;19.86;50.02;102359.25;5073252;28;20108;-83
2022/09/22 10:31:20;;;;;;;0.10;0.10;;;;;;;20.01;49.58;102356.94;5066073;28;20086;-82
2022/09/22 10:34:01;;;;;;;0.55;0.55;;;;;;;20.16;47.90;102352.81;5052884;28;20022;-82
2022/09/22 10:36:29;;;;;;;0.10;0.10;;;;;;;20.13;47.58;102351.13;5062763;28;20033;-82
2022/09/22 10:38:56;;;;;;;1.88;0.77;;;;;;;20.21;47.13;102348.16;5056548;28;20033;-82
2022/09/22 10:41:27;;;;;;;0.15;0.15;;;;;;;20.33;49.04;102345.00;5067510;28;20029;-81
2022/09/22 10:43:58;;;;;;;0.00;0.00;;;;;;;20.44;47.33;102341.91;5064123;28;20088;-80
2022/09/22 10:46:51;;;;;;;0.10;0.10;;;;;;;20.49;46.85;102334.53;5071154;28;20111;-81
2022/09/22 11:00:42;;;;;;;0.10;0.10;;;;;;;20.78;47.01;102321.78;5090792;27;20118;-79
2022/09/22 11:12:18;;;;;;;0.10;0.10;;;;;;;21.00;44.41;102313.72;5102233;27;20360;-81
2022/09/22 11:20:41;;;;;;;0.15;0.15;;;;;;;21.16;44.19;102307.72;5149795;27;20405;-82
2022/09/22 11:28:50;;;;;;;0.05;0.05;;;;;;;21.47;42.24;102303.69;5072476;28;20349;-79
2022/09/22 11:34:24;;;;;;;0.10;0.10;;;;;;;21.65;41.62;102297.56;5085150;27;20359;-78
2022/09/22 11:45:30;;;;;;;0.10;0.10;;;;;;;21.88;42.59;102284.00;5060295;28;20385;-78
2022/09/22 11:48:06;;;;;;;0.20;0.20;;;;;;;21.89;41.63;102281.22;5047659;28;20036;-79
2022/09/22 11:50:46;;;;;;;0.30;0.30;;;;;;;21.97;41.74;102270.97;5048411;28;20107;-78
2022/09/22 11:53:52;;;;;;;0.10;0.10;;;;;;;22.11;40.94;102259.53;5048249;28;20439;-78
2022/09/22 11:59:43;;;;;;;0.10;0.10;;;;;;;22.17;37.77;102255.69;5075389;27;20433;-82
2022/09/22 12:02:25;;;;;;;0.10;0.10;;;;;;;22.24;38.96;102253.56;5067821;28;20036;-82
2022/09/22 12:05:06;;;;;;;0.43;0.43;;;;;;;22.34;38.64;102256.72;5068677;28;20013;-82
2022/09/22 12:07:43;;;;;;;0.20;0.20;;;;;;;22.35;37.65;102240.41;5073088;28;20447;-83
2022/09/22 12:10:17;;;;;;;0.10;0.10;;;;;;;22.42;37.00;102246.47;5069736;28;20021;-83
2022/09/22 12:12:47;;;;;;;0.20;0.20;;;;;;;22.50;36.85;102241.53;5074060;28;20078;-82
2022/09/22 12:23:22;;;;;;;0.88;0.57;;;;;;;22.65;37.64;102226.41;5096402;27;20851;-81
2022/09/22 12:28:30;;;;;;;0.05;0.05;;;;;;;22.76;37.89;102221.34;5076564;28;20859;-79
2022/09/22 12:31:17;;;;;;;0.17;0.17;;;;;;;22.91;37.45;102211.59;5076136;28;20028;-80
2022/09/22 12:36:36;;;;;;;0.10;0.10;;;;;;;23.14;36.11;102219.50;5076645;28;20353;-79
2022/09/22 12:39:17;;;;;;;0.63;0.35;;;;;;;23.14;34.75;102212.28;5076274;28;20037;-78
2022/09/22 12:44:23;;;;;;;0.90;0.85;;;;;;;23.10;36.52;102199.84;5125050;27;20365;-79
2022/09/22 12:46:55;;;;;;;0.00;0.00;;;;;;;23.10;37.55;102195.34;5126002;28;20091;-79
2022/09/22 12:49:22;;;;;;;0.10;0.10;;;;;;;23.09;36.15;102192.69;5107444;28;20028;-79
2022/09/22 12:51:49;;;;;;;0.10;0.10;;;;;;;23.09;34.46;102192.69;5103957;28;20028;-81
2022/09/22 12:57:00;;;;;;;0.10;0.10;;;;;;;23.17;34.93;102186.94;5114309;27;20385;-79
2022/09/22 12:59:53;;;;;;;0.30;0.20;;;;;;;23.13;35.35;102188.91;5122630;28;20499;-79
2022/09/22 13:07:42;;;;;;;0.10;0.10;;;;;;;22.96;32.82;102180.78;5124111;27;20347;-80
2022/09/22 13:15:58;;;;;;;0.10;0.10;;;;;;;23.16;32.98;102172.53;5078835;27;1863742;-79
2022/09/22 13:18:34;;;;;;;0.10;0.10;;;;;;;23.17;34.75;102168.88;5144007;27;20060;-80
2022/09/22 13:26:33;;;;;;;0.05;0.05;;;;;;;23.43;35.35;102158.53;5100198;27;1863885;-80
2022/09/22 13:29:17;;;;;;;0.10;0.10;;;;;;;23.66;33.83;102159.09;5143312;28;20285;-80
2022/09/22 13:31:50;;;;;;;0.10;0.10;;;;;;;23.71;34.93;102151.59;5132334;28;20491;-80
2022/09/22 13:36:56;;;;;;;0.05;0.05;;;;;;;23.69;34.92;102153.50;5095076;27;1865006;-79
2022/09/22 13:39:25;;;;;;;0.10;0.10;;;;;;;23.73;35.48;102153.25;5143509;28;20042;-80
2022/09/22 13:41:58;;;;;;;0.00;0.00;;;;;;;23.73;33.70;102149.69;5127618;28;20027;-81
2022/09/22 13:44:29;;;;;;;0.00;0.00;;;;;;;23.63;35.02;102153.84;5114278;28;20027;-79
2022/09/22 13:46:57;;;;;;;0.10;0.10;;;;;;;23.58;32.69;102149.56;5117364;28;20027;-80
2022/09/22 13:49:42;;;;;;;0.20;0.20;;;;;;;23.61;34.44;102150.38;5113839;28;20028;-80
2022/09/22 13:52:15;;;;;;;0.08;0.08;;;;;;;23.46;33.20;102147.53;5117663;28;20024;-79
2022/09/22 13:54:45;;;;;;;0.10;0.10;;;;;;;23.41;33.22;102145.09;5108155;28;20081;-80
2022/09/22 13:57:22;;;;;;;0.10;0.10;;;;;;;23.54;33.69;102144.41;5121659;28;20031;-80
2022/09/22 13:59:53;;;;;;;0.10;0.10;;;;;;;23.66;34.36;102137.44;5121428;28;20062;-79
2022/09/22 14:02:23;;;;;;;0.57;0.57;;;;;;;23.75;33.89;102147.75;5120475;28;20042;-80
2022/09/22 14:04:52;;;;;;;0.10;0.10;;;;;;;23.84;34.72;102141.84;5120553;28;20016;-80
2022/09/22 14:07:21;;;;;;;0.13;0.13;;;;;;;23.93;34.15;102135.09;5120465;28;20028;-79